Time;durP1;ratioP1;P1;durP2;ratioP2;P2;SDS_P1;SDS_P2;PMS_P1;PMS_P2;Temp;Humidity;BMP_temperature;BMP_pressure;BME280_temperature;BME280_humidity;BME280_pressure;Samples;Min_cycle;Max_cycle;Signal;HPM_P1;HPM_P2
2022/08/25 00:02:02;;;;;;;13.82;9.63;;;26.10;99.90;;;;;;5049525;28;20060;-74
2022/08/25 00:04:29;;;;;;;21.08;8.38;;;26.10;99.90;;;;;;5049722;28;20057;-74
2022/08/25 00:06:58;;;;;;;16.65;9.18;;;26.10;99.90;;;;;;5032947;28;20140;-75
2022/08/25 00:09:30;;;;;;;16.80;8.50;;;26.10;99.90;;;;;;5048998;28;20049;-75
2022/08/25 00:11:58;;;;;;;16.67;8.02;;;26.10;99.90;;;;;;5032997;28;20052;-75
2022/08/25 00:14:32;;;;;;;20.52;8.73;;;26.10;99.90;;;;;;5065940;28;20530;-74
2022/08/25 00:17:00;;;;;;;14.15;7.57;;;26.10;99.90;;;;;;5066221;28;20056;-74
2022/08/25 00:19:33;;;;;;;17.58;8.43;;;26.10;99.90;;;;;;5065522;28;20068;-74
2022/08/25 00:22:02;;;;;;;13.75;7.13;;;26.10;99.90;;;;;;5050343;28;20095;-74
2022/08/25 00:24:30;;;;;;;15.48;7.50;;;26.10;99.90;;;;;;5050388;28;20041;-74
2022/08/25 00:27:00;;;;;;;13.88;7.82;;;26.10;99.90;;;;;;5049402;28;20044;-75
2022/08/25 00:29:29;;;;;;;16.35;7.53;;;26.10;99.90;;;;;;5032479;28;20094;-74
2022/08/25 00:31:57;;;;;;;13.85;7.00;;;26.10;99.90;;;;;;5049008;28;20515;-74
2022/08/25 00:34:29;;;;;;;19.92;7.82;;;26.10;99.90;;;;;;5048886;28;20044;-74
2022/08/25 00:36:56;;;;;;;14.65;7.45;;;26.10;99.90;;;;;;5066079;28;20049;-74
2022/08/25 00:39:26;;;;;;;16.67;7.40;;;26.10;99.90;;;;;;5049214;28;20045;-75
2022/08/25 00:41:56;;;;;;;12.98;6.07;;;26.00;99.90;;;;;;5065544;28;20045;-74
2022/08/25 00:44:26;;;;;;;12.93;6.25;;;26.00;99.90;;;;;;5065890;28;20052;-75
2022/08/25 00:46:57;;;;;;;12.60;6.20;;;26.00;99.90;;;;;;5033084;28;20092;-74
2022/08/25 00:49:33;;;;;;;14.23;7.28;;;26.00;99.90;;;;;;5036063;28;20166;-74
2022/08/25 00:52:11;;;;;;;12.75;6.72;;;26.00;99.90;;;;;;5053144;28;20045;-74
2022/08/25 00:55:08;;;;;;;11.85;5.82;;;26.00;99.90;;;;;;5053035;28;20049;-74
2022/08/25 00:57:50;;;;;;;12.80;6.50;;;26.00;99.90;;;;;;5041861;28;20048;-75
2022/08/25 01:00:31;;;;;;;12.43;5.93;;;25.90;99.90;;;;;;5089559;28;20127;-74
2022/08/25 01:02:58;;;;;;;10.27;5.97;;;25.90;99.90;;;;;;5056265;28;20584;-74
2022/08/25 01:05:28;;;;;;;10.98;6.75;;;25.90;99.90;;;;;;5072319;28;20841;-75
2022/08/25 01:07:58;;;;;;;16.55;7.22;;;25.90;99.90;;;;;;5072468;28;20503;-74
2022/08/25 01:10:27;;;;;;;8.82;6.18;;;25.80;99.90;;;;;;5072209;28;20137;-74
2022/08/25 01:13:01;;;;;;;15.27;6.38;;;25.80;99.90;;;;;;5056107;28;20053;-74
2022/08/25 01:15:29;;;;;;;11.77;6.07;;;25.80;99.90;;;;;;5071950;28;20576;-74
2022/08/25 01:17:57;;;;;;;16.85;6.90;;;25.80;99.90;;;;;;5072440;28;20106;-74
2022/08/25 01:20:28;;;;;;;11.65;5.88;;;25.90;99.90;;;;;;5072325;28;20044;-74
2022/08/25 01:22:57;;;;;;;11.10;6.72;;;25.90;99.90;;;;;;5073485;28;20040;-74
2022/08/25 01:25:56;;;;;;;10.38;6.00;;;25.90;99.90;;;;;;5088759;28;20040;-74
2022/08/25 01:28:25;;;;;;;10.98;5.55;;;25.80;99.90;;;;;;5055368;28;20075;-74
2022/08/25 01:30:52;;;;;;;10.68;5.63;;;25.90;99.90;;;;;;5071825;28;20746;-74
2022/08/25 01:33:23;;;;;;;15.80;6.32;;;25.80;99.90;;;;;;5073089;28;20402;-75
2022/08/25 01:35:52;;;;;;;9.13;4.85;;;25.80;99.90;;;;;;5071959;28;20083;-74
2022/08/25 01:38:20;;;;;;;13.18;6.70;;;25.80;99.90;;;;;;5088910;28;20466;-74
2022/08/25 01:40:49;;;;;;;14.20;6.65;;;25.80;99.90;;;;;;5072241;28;20051;-74
2022/08/25 01:43:36;;;;;;;10.75;5.78;;;25.80;99.90;;;;;;5105476;28;20485;-74
2022/08/25 01:46:04;;;;;;;10.32;5.43;;;25.80;99.90;;;;;;5071571;28;20053;-75
2022/08/25 01:48:32;;;;;;;8.57;4.97;;;25.80;99.90;;;;;;5072172;28;20044;-74
2022/08/25 01:50:59;;;;;;;9.52;4.70;;;25.80;99.90;;;;;;5088763;28;20055;-75
2022/08/25 01:53:30;;;;;;;9.50;5.28;;;25.80;99.90;;;;;;5088757;28;20055;-74
2022/08/25 01:56:04;;;;;;;14.82;5.95;;;25.80;99.90;;;;;;5067540;28;20049;-75
2022/08/25 01:58:34;;;;;;;7.75;4.45;;;25.80;99.90;;;;;;5067595;28;20037;-74
2022/08/25 02:01:06;;;;;;;9.88;4.50;;;25.80;99.90;;;;;;5068151;28;20048;-74
2022/08/25 02:03:39;;;;;;;10.18;5.55;;;25.80;99.90;;;;;;5084873;28;20052;-75
2022/08/25 02:06:07;;;;;;;8.80;4.72;;;25.80;99.90;;;;;;5051516;28;20056;-75
2022/08/25 02:08:37;;;;;;;13.68;5.47;;;25.80;99.90;;;;;;5050972;28;20049;-75
2022/08/25 02:11:04;;;;;;;21.30;5.55;;;25.80;99.90;;;;;;5051480;28;20044;-74
2022/08/25 02:13:32;;;;;;;11.02;4.70;;;25.80;99.90;;;;;;5084938;28;20403;-74
2022/08/25 02:16:01;;;;;;;7.35;3.72;;;25.80;99.90;;;;;;5067633;28;20438;-74
2022/08/25 02:18:29;;;;;;;8.52;4.28;;;25.80;99.90;;;;;;5084822;28;20045;-75
2022/08/25 02:20:57;;;;;;;8.60;4.22;;;25.80;99.90;;;;;;5051274;28;20068;-74
2022/08/25 02:23:25;;;;;;;6.55;4.57;;;25.70;99.90;;;;;;5050916;28;20041;-74
2022/08/25 02:25:56;;;;;;;8.15;4.47;;;25.70;99.90;;;;;;5052367;28;20380;-74
2022/08/25 02:28:24;;;;;;;7.82;4.57;;;25.70;99.90;;;;;;5051186;28;20049;-74
2022/08/25 02:30:52;;;;;;;7.32;3.75;;;25.70;99.90;;;;;;5067345;28;20507;-75
2022/08/25 02:33:21;;;;;;;7.43;3.28;;;25.70;99.90;;;;;;5084016;28;20550;-75
2022/08/25 02:35:48;;;;;;;11.98;4.63;;;25.60;99.90;;;;;;5050632;28;20049;-74
2022/08/25 02:38:17;;;;;;;10.10;4.22;;;25.60;99.90;;;;;;5051205;28;20521;-74
2022/08/25 02:40:44;;;;;;;8.18;4.13;;;25.60;99.90;;;;;;5050645;28;20072;-74
2022/08/25 02:43:12;;;;;;;11.93;3.83;;;25.60;99.90;;;;;;5067614;28;20384;-75
2022/08/25 02:45:40;;;;;;;8.73;3.58;;;25.60;99.90;;;;;;5084349;28;20080;-74
2022/08/25 02:48:08;;;;;;;8.35;3.58;;;25.60;99.90;;;;;;5084071;28;20037;-75
2022/08/25 02:50:35;;;;;;;8.27;4.45;;;25.60;99.90;;;;;;5084375;28;20048;-75
2022/08/25 02:53:07;;;;;;;13.45;4.10;;;25.60;99.90;;;;;;5101170;28;20485;-74
2022/08/25 02:55:34;;;;;;;9.43;3.85;;;25.60;99.90;;;;;;5070120;28;20048;-75
2022/08/25 02:58:02;;;;;;;12.13;3.58;;;25.60;99.90;;;;;;5054037;28;20048;-76
2022/08/25 03:00:31;;;;;;;6.75;3.63;;;25.60;99.90;;;;;;5067259;28;20068;-74
2022/08/25 03:02:59;;;;;;;7.80;4.07;;;25.60;99.90;;;;;;5069712;28;20048;-74
2022/08/25 03:05:28;;;;;;;12.50;4.13;;;25.60;99.90;;;;;;5070076;28;20495;-74
2022/08/25 03:07:57;;;;;;;8.85;3.78;;;25.60;99.90;;;;;;5086784;28;20048;-74
2022/08/25 03:10:24;;;;;;;8.52;3.72;;;25.60;99.90;;;;;;5069427;28;20491;-75
2022/08/25 03:12:52;;;;;;;9.43;3.53;;;25.60;99.90;;;;;;5070227;28;20044;-75
2022/08/25 03:15:20;;;;;;;9.45;4.22;;;25.50;99.90;;;;;;5071270;28;20037;-74
2022/08/25 03:17:51;;;;;;;9.27;4.05;;;25.50;99.90;;;;;;5103421;28;20494;-75
2022/08/25 03:20:22;;;;;;;9.80;3.58;;;25.50;99.90;;;;;;5070073;28;20047;-75
2022/08/25 03:22:50;;;;;;;7.93;3.45;;;25.50;99.90;;;;;;5071232;28;20076;-74
2022/08/25 03:28:06;;;;;;;14.23;3.63;;;25.50;99.90;;;;;;5071347;28;20495;-74
2022/08/25 03:30:34;;;;;;;5.60;3.50;;;25.50;99.90;;;;;;5086945;28;20487;-74
2022/08/25 03:33:02;;;;;;;7.82;2.95;;;25.50;99.90;;;;;;5086833;28;20055;-75
2022/08/25 03:35:30;;;;;;;8.45;3.75;;;25.50;99.90;;;;;;5053073;28;20056;-75
2022/08/25 03:37:59;;;;;;;8.20;4.05;;;25.50;99.90;;;;;;5086916;28;20083;-74
2022/08/25 03:40:28;;;;;;;11.18;4.05;;;25.40;99.90;;;;;;5050253;28;20052;-75
2022/08/25 03:42:57;;;;;;;12.45;3.40;;;25.50;99.90;;;;;;5069724;28;20580;-74
2022/08/25 03:45:25;;;;;;;11.10;3.75;;;25.50;99.90;;;;;;5067615;28;20091;-74
2022/08/25 03:47:53;;;;;;;9.18;4.57;;;25.50;99.90;;;;;;5069813;28;20507;-74
2022/08/25 03:50:22;;;;;;;12.20;4.50;;;25.50;99.90;;;;;;5086155;28;20040;-75
2022/08/25 03:52:55;;;;;;;8.48;3.90;;;25.50;99.90;;;;;;5070643;28;20499;-75
2022/08/25 03:55:24;;;;;;;10.60;4.55;;;25.40;99.90;;;;;;5085784;28;20094;-74
2022/08/25 03:57:53;;;;;;;15.52;5.50;;;25.40;99.90;;;;;;5069294;28;20404;-75
2022/08/25 04:00:22;;;;;;;11.80;5.50;;;25.40;99.90;;;;;;5069394;28;20094;-75
2022/08/25 04:02:50;;;;;;;7.88;3.78;;;25.30;99.90;;;;;;5052753;28;20805;-75
2022/08/25 04:05:19;;;;;;;14.23;4.10;;;25.30;99.90;;;;;;5103083;28;20090;-74
2022/08/25 04:07:47;;;;;;;10.07;4.15;;;25.40;99.90;;;;;;5070390;28;20044;-74
2022/08/25 04:10:14;;;;;;;15.23;4.82;;;25.30;99.90;;;;;;5052853;28;20078;-75
2022/08/25 04:12:42;;;;;;;9.45;4.15;;;25.40;99.90;;;;;;5070532;28;20114;-74
2022/08/25 04:15:10;;;;;;;7.35;3.75;;;25.40;99.90;;;;;;5069407;28;20044;-74
2022/08/25 04:17:39;;;;;;;9.32;3.65;;;25.40;99.90;;;;;;5085549;28;20044;-74
2022/08/25 04:20:09;;;;;;;12.10;4.45;;;25.40;99.90;;;;;;5102764;28;20037;-75
2022/08/25 04:22:37;;;;;;;8.95;3.83;;;25.40;99.90;;;;;;5068621;28;20612;-75
2022/08/25 04:25:06;;;;;;;11.05;4.18;;;25.40;99.90;;;;;;5069381;28;20048;-75
2022/08/25 04:27:36;;;;;;;12.50;4.10;;;25.40;99.90;;;;;;5085696;28;20044;-75
2022/08/25 04:30:05;;;;;;;13.13;5.53;;;25.40;99.90;;;;;;5069123;28;20044;-74
2022/08/25 04:32:35;;;;;;;10.23;4.20;;;25.40;99.90;;;;;;5069204;28;20541;-75
2022/08/25 04:35:04;;;;;;;14.50;3.72;;;25.40;99.90;;;;;;5085549;28;20476;-75
2022/08/25 04:37:32;;;;;;;9.38;3.60;;;25.40;99.90;;;;;;5067206;28;20486;-74
2022/08/25 04:39:59;;;;;;;7.70;3.70;;;25.40;99.90;;;;;;5068985;28;20071;-75
2022/08/25 04:42:27;;;;;;;14.77;4.55;;;25.40;99.90;;;;;;5102891;28;20044;-74
2022/08/25 04:44:56;;;;;;;10.20;4.55;;;25.40;99.90;;;;;;5085759;28;20037;-75
2022/08/25 04:47:24;;;;;;;15.98;4.35;;;25.40;99.90;;;;;;5068864;28;20049;-74
2022/08/25 04:49:52;;;;;;;11.52;6.40;;;25.40;99.90;;;;;;5068646;28;20483;-75
2022/08/25 04:52:20;;;;;;;13.52;6.47;;;25.40;99.90;;;;;;5069197;28;20973;-75
2022/08/25 04:54:48;;;;;;;9.50;4.78;;;25.40;99.90;;;;;;5085697;28;20098;-74
2022/08/25 04:57:15;;;;;;;10.80;5.40;;;25.40;99.90;;;;;;5068949;28;20049;-75
2022/08/25 04:59:43;;;;;;;11.05;4.97;;;25.40;99.90;;;;;;5068685;28;20056;-75
2022/08/25 05:02:12;;;;;;;10.15;5.80;;;25.40;99.90;;;;;;5102267;28;20052;-73
2022/08/25 05:04:39;;;;;;;8.48;4.40;;;25.40;99.90;;;;;;5070108;28;20040;-74
2022/08/25 05:07:07;;;;;;;13.15;4.93;;;25.50;99.90;;;;;;5069931;28;20052;-74
2022/08/25 05:09:36;;;;;;;11.10;5.88;;;25.50;99.90;;;;;;5068589;28;20114;-75
2022/08/25 05:12:05;;;;;;;9.05;3.95;;;25.50;99.90;;;;;;5085849;28;20048;-75
2022/08/25 05:14:34;;;;;;;9.43;4.82;;;25.60;99.90;;;;;;5052260;28;20942;-74
2022/08/25 05:17:01;;;;;;;9.77;4.25;;;25.60;99.90;;;;;;5085245;28;20495;-74
2022/08/25 05:19:29;;;;;;;14.25;4.43;;;25.60;99.90;;;;;;5068449;28;20040;-74
2022/08/25 05:21:57;;;;;;;12.93;5.85;;;25.60;99.90;;;;;;5102674;28;20063;-74
2022/08/25 05:24:25;;;;;;;14.00;6.00;;;25.60;99.90;;;;;;5085208;28;20091;-74
2022/08/25 05:26:53;;;;;;;14.50;5.70;;;25.70;99.90;;;;;;5102039;28;20041;-74
2022/08/25 05:29:21;;;;;;;13.05;5.65;;;25.60;99.90;;;;;;5068040;28;20519;-75
2022/08/25 05:31:49;;;;;;;10.02;3.95;;;25.60;99.90;;;;;;5068451;28;20123;-75
2022/08/25 05:34:18;;;;;;;10.20;5.55;;;25.70;99.90;;;;;;5070038;28;20399;-74
2022/08/25 05:36:48;;;;;;;10.13;5.85;;;25.70;99.90;;;;;;5073006;28;20048;-75
2022/08/25 05:39:16;;;;;;;13.15;5.88;;;25.60;99.90;;;;;;5072308;28;20032;-75
2022/08/25 05:41:43;;;;;;;12.02;4.70;;;25.60;99.90;;;;;;5055669;28;20409;-76
2022/08/25 05:44:12;;;;;;;8.07;4.35;;;25.60;99.90;;;;;;5073153;28;20040;-75
2022/08/25 05:46:40;;;;;;;18.85;6.32;;;25.60;99.90;;;;;;5105289;28;20044;-74
2022/08/25 05:49:09;;;;;;;11.82;5.65;;;25.60;99.90;;;;;;5055389;28;20106;-74
2022/08/25 05:51:38;;;;;;;13.52;4.78;;;25.60;99.90;;;;;;5088886;28;20094;-74
2022/08/25 05:54:07;;;;;;;9.82;4.22;;;25.60;99.90;;;;;;5088623;28;20147;-74
2022/08/25 05:56:36;;;;;;;10.63;5.20;;;25.60;99.90;;;;;;5071846;28;20418;-75
2022/08/25 05:59:03;;;;;;;10.15;5.15;;;25.70;99.90;;;;;;5105105;28;20044;-75
2022/08/25 06:04:22;;;;;;;8.32;5.13;;;25.70;99.90;;;;;;5073237;28;20067;-75
2022/08/25 06:06:53;;;;;;;9.38;4.65;;;25.70;99.90;;;;;;5055431;28;20056;-74
2022/08/25 06:09:23;;;;;;;12.68;4.88;;;25.70;99.90;;;;;;5055146;28;20054;-74
2022/08/25 06:11:50;;;;;;;10.82;4.53;;;25.80;99.90;;;;;;5088327;28;20074;-74
2022/08/25 06:14:21;;;;;;;8.82;4.53;;;25.80;99.90;;;;;;5071687;28;20056;-73
2022/08/25 06:16:50;;;;;;;8.23;4.28;;;25.80;99.90;;;;;;5072686;28;20046;-73
2022/08/25 06:19:18;;;;;;;10.43;4.78;;;25.80;99.90;;;;;;5071368;28;20045;-73
2022/08/25 06:21:48;;;;;;;9.73;4.57;;;25.80;99.90;;;;;;5104551;28;20128;-74
2022/08/25 06:24:16;;;;;;;8.57;4.65;;;25.90;99.90;;;;;;5072358;28;20063;-74
2022/08/25 06:26:44;;;;;;;13.10;4.30;;;25.90;99.90;;;;;;5071383;28;20063;-73
2022/08/25 06:29:12;;;;;;;7.50;4.57;;;25.90;99.90;;;;;;5071231;28;20048;-74
2022/08/25 06:31:41;;;;;;;11.70;5.47;;;26.00;99.90;;;;;;5071267;28;20052;-74
2022/08/25 06:34:10;;;;;;;12.25;4.45;;;26.00;99.90;;;;;;5068365;28;20048;-74
2022/08/25 06:36:39;;;;;;;13.20;5.72;;;26.00;99.90;;;;;;5050880;28;20398;-74
2022/08/25 06:39:08;;;;;;;16.75;6.38;;;26.00;99.90;;;;;;5067775;28;20041;-75
2022/08/25 06:41:36;;;;;;;7.28;5.15;;;26.00;99.90;;;;;;5067796;28;20033;-74
2022/08/25 06:44:05;;;;;;;14.05;5.05;;;26.10;99.90;;;;;;5067798;28;20049;-74
2022/08/25 06:46:34;;;;;;;8.75;5.25;;;26.00;99.90;;;;;;5050985;28;20045;-74
2022/08/25 06:49:01;;;;;;;6.90;4.18;;;26.10;99.90;;;;;;5051143;28;20055;-74
2022/08/25 06:51:29;;;;;;;14.70;4.60;;;26.10;99.90;;;;;;5067393;28;20560;-75
2022/08/25 06:53:57;;;;;;;11.85;4.70;;;26.20;99.90;;;;;;5067654;28;20033;-74
2022/08/25 06:56:24;;;;;;;9.52;4.80;;;26.30;99.90;;;;;;5067441;28;20049;-74
2022/08/25 06:58:53;;;;;;;18.63;4.93;;;26.30;99.90;;;;;;5084291;28;20049;-74
2022/08/25 07:01:25;;;;;;;13.02;5.20;;;26.40;99.90;;;;;;5050675;28;20467;-73
2022/08/25 07:03:59;;;;;;;11.27;5.45;;;26.40;99.90;;;;;;5084275;28;20136;-74
2022/08/25 07:06:31;;;;;;;12.82;5.70;;;26.40;99.90;;;;;;5051094;28;20052;-74
2022/08/25 07:08:59;;;;;;;11.55;5.60;;;26.50;99.90;;;;;;5050808;28;20140;-74
2022/08/25 07:11:26;;;;;;;11.10;5.07;;;26.50;99.90;;;;;;5050716;28;20052;-74
2022/08/25 07:13:54;;;;;;;13.80;5.82;;;26.50;99.90;;;;;;5050340;28;20041;-74
2022/08/25 07:16:22;;;;;;;11.20;5.68;;;26.50;99.90;;;;;;5050506;28;20478;-74
2022/08/25 07:18:50;;;;;;;9.90;5.43;;;26.60;99.90;;;;;;5050555;28;20044;-74
2022/08/25 07:21:18;;;;;;;10.82;5.05;;;26.60;99.90;;;;;;5050210;28;20040;-74
2022/08/25 07:23:47;;;;;;;11.02;5.10;;;26.60;99.90;;;;;;5050510;28;20049;-75
2022/08/25 07:26:18;;;;;;;13.20;6.82;;;26.60;99.90;;;;;;5050716;28;20056;-75
2022/08/25 07:29:10;;;;;;;8.85;5.22;;;26.70;99.90;;;;;;5079850;28;20049;-74
2022/08/25 07:31:38;;;;;;;11.43;5.50;;;26.70;99.90;;;;;;5033075;28;20057;-74
2022/08/25 07:37:10;;;;;;;18.58;6.03;;;26.90;99.90;;;;;;5068763;28;20518;-74
2022/08/25 07:39:37;;;;;;;15.70;5.88;;;26.90;99.90;;;;;;5033439;28;20127;-74
2022/08/25 07:42:05;;;;;;;11.10;6.30;;;26.90;99.90;;;;;;5083366;28;20510;-74
2022/08/25 07:44:33;;;;;;;17.70;6.32;;;26.90;99.90;;;;;;5051207;28;20090;-74
2022/08/25 07:47:01;;;;;;;13.57;5.88;;;27.00;99.90;;;;;;5066357;28;20053;-75
2022/08/25 07:49:28;;;;;;;14.95;5.82;;;26.90;99.90;;;;;;5083002;28;20395;-75
2022/08/25 07:51:56;;;;;;;14.40;6.25;;;26.90;99.90;;;;;;5049849;28;20077;-74
2022/08/25 07:54:26;;;;;;;13.85;5.53;;;27.10;99.90;;;;;;5051053;28;20475;-75
2022/08/25 07:56:53;;;;;;;16.17;5.95;;;27.10;99.90;;;;;;5050226;28;20135;-75
2022/08/25 07:59:21;;;;;;;12.35;6.05;;;27.10;99.90;;;;;;5049594;28;20037;-74
2022/08/25 08:01:49;;;;;;;14.60;6.47;;;27.20;99.90;;;;;;5082996;28;20048;-74
2022/08/25 08:04:17;;;;;;;12.90;6.85;;;27.10;99.90;;;;;;5049833;28;20049;-74
2022/08/25 08:06:44;;;;;;;11.25;6.53;;;27.20;99.90;;;;;;5049618;28;20047;-75
2022/08/25 08:09:12;;;;;;;10.30;5.97;;;27.20;99.90;;;;;;5066118;28;20045;-74
2022/08/25 08:11:43;;;;;;;10.95;6.65;;;27.20;99.90;;;;;;5049636;28;20110;-74
2022/08/25 08:14:12;;;;;;;13.45;6.10;;;27.20;99.90;;;;;;5066149;28;20400;-74
2022/08/25 08:16:39;;;;;;;13.60;6.80;;;27.20;99.90;;;;;;5050001;28;20499;-74
2022/08/25 08:19:07;;;;;;;10.98;7.07;;;27.30;99.90;;;;;;5086022;28;20044;-74
2022/08/25 08:21:35;;;;;;;15.20;6.60;;;27.40;99.90;;;;;;5068945;28;20076;-75
2022/08/25 08:24:04;;;;;;;11.63;6.90;;;27.40;99.90;;;;;;5068950;28;20055;-74
2022/08/25 08:26:37;;;;;;;14.77;6.97;;;27.50;99.90;;;;;;5069469;28;20371;-74
2022/08/25 08:29:15;;;;;;;11.73;5.60;;;27.60;99.90;;;;;;5067797;28;20048;-74
2022/08/25 08:31:42;;;;;;;15.38;7.05;;;27.60;99.90;;;;;;5065812;28;20045;-73
2022/08/25 08:34:11;;;;;;;15.23;7.57;;;27.60;99.90;;;;;;5066014;28;20406;-73
2022/08/25 08:36:38;;;;;;;11.25;7.90;;;27.60;99.90;;;;;;5049002;28;20072;-74
2022/08/25 08:39:07;;;;;;;14.32;6.90;;;27.70;99.90;;;;;;5032829;28;20135;-74
2022/08/25 08:44:42;;;;;;;16.55;6.75;;;27.70;99.90;;;;;;5082745;28;20045;-74
2022/08/25 08:47:35;;;;;;;12.52;6.65;;;27.80;99.90;;;;;;5049185;28;20499;-75
2022/08/25 08:50:09;;;;;;;13.57;7.93;;;27.70;99.90;;;;;;5050598;28;20064;-75
2022/08/25 08:52:48;;;;;;;15.75;6.43;;;27.60;99.90;;;;;;5050447;28;20053;-74
2022/08/25 08:55:24;;;;;;;15.02;7.88;;;27.50;99.90;;;;;;5050392;28;20456;-74
2022/08/25 08:57:54;;;;;;;12.60;6.97;;;27.40;99.90;;;;;;5065664;28;20144;-73
2022/08/25 09:00:22;;;;;;;12.35;6.07;;;27.40;99.90;;;;;;5049160;28;20041;-74
2022/08/25 09:03:01;;;;;;;10.80;6.45;;;27.40;99.90;;;;;;5032712;28;20041;-74
2022/08/25 09:05:34;;;;;;;12.40;6.82;;;27.50;99.90;;;;;;5048848;28;20111;-75
2022/08/25 09:08:11;;;;;;;14.48;7.05;;;27.60;99.90;;;;;;5051178;28;20110;-74
2022/08/25 09:11:02;;;;;;;12.55;7.03;;;27.70;99.90;;;;;;5053244;28;20095;-74
2022/08/25 09:13:42;;;;;;;13.18;7.03;;;27.80;99.90;;;;;;5052450;28;20408;-74
2022/08/25 09:19:31;;;;;;;12.02;6.00;;;27.70;99.90;;;;;;5053876;28;20040;-74
2022/08/25 09:22:01;;;;;;;12.80;6.75;;;27.70;99.90;;;;;;5052726;28;20039;-74
2022/08/25 09:24:36;;;;;;;12.05;6.38;;;27.70;99.90;;;;;;5069526;28;20041;-74
2022/08/25 09:27:36;;;;;;;10.88;6.20;;;27.70;99.90;;;;;;5069743;28;20103;-75
2022/08/25 09:30:14;;;;;;;12.77;7.32;;;27.60;99.90;;;;;;5045152;28;20061;-74
2022/08/25 09:32:49;;;;;;;12.80;6.15;;;27.70;99.90;;;;;;5089250;28;20055;-73
2022/08/25 09:35:27;;;;;;;15.48;6.55;;;27.90;99.90;;;;;;5105984;28;20040;-74
2022/08/25 09:38:09;;;;;;;11.32;6.53;;;28.00;99.90;;;;;;5055606;28;20057;-74
2022/08/25 09:40:50;;;;;;;12.23;7.28;;;28.20;99.90;;;;;;5089349;28;20566;-74
2022/08/25 09:43:30;;;;;;;11.48;6.68;;;28.30;99.90;;;;;;5071771;28;20041;-74
2022/08/25 09:46:11;;;;;;;11.55;6.25;;;28.40;99.90;;;;;;5089065;28;20102;-74
2022/08/25 09:48:56;;;;;;;12.07;6.25;;;28.40;99.90;;;;;;5072555;28;20074;-74
2022/08/25 09:51:31;;;;;;;14.38;7.90;;;28.60;99.90;;;;;;5055459;28;20070;-74
2022/08/25 09:54:19;;;;;;;11.40;6.63;;;28.70;99.90;;;;;;5071884;28;20097;-75
2022/08/25 09:56:51;;;;;;;14.48;8.45;;;28.70;99.80;;;;;;5105549;28;20487;-74
2022/08/25 09:59:37;;;;;;;10.30;6.57;;;28.70;99.80;;;;;;5088617;28;20133;-75
2022/08/25 10:02:27;;;;;;;12.02;7.90;;;28.80;99.60;;;;;;5073224;28;20041;-74
2022/08/25 10:04:55;;;;;;;17.10;8.63;;;29.00;98.60;;;;;;5073152;28;20085;-74
2022/08/25 10:07:32;;;;;;;11.05;8.15;;;29.20;98.60;;;;;;5069559;28;20049;-74
2022/08/25 10:10:03;;;;;;;16.90;8.15;;;29.40;98.40;;;;;;5071986;28;20036;-74
2022/08/25 10:12:41;;;;;;;12.57;8.27;;;29.40;98.40;;;;;;5088586;28;20177;-74
2022/08/25 10:15:33;;;;;;;16.73;7.35;;;29.50;98.40;;;;;;5072007;28;20064;-74
2022/08/25 10:18:19;;;;;;;13.50;8.07;;;29.70;98.70;;;;;;5055031;28;20106;-74
2022/08/25 10:21:05;;;;;;;15.40;7.90;;;29.90;98.30;;;;;;5070848;28;20048;-74
2022/08/25 10:23:37;;;;;;;18.20;8.63;;;30.00;98.20;;;;;;5104715;28;20511;-75
2022/08/25 10:26:12;;;;;;;12.68;7.55;;;30.10;98.10;;;;;;5088476;28;20059;-74
2022/08/25 10:29:07;;;;;;;10.73;7.43;;;30.00;98.20;;;;;;5054749;28;20048;-74
2022/08/25 10:31:45;;;;;;;13.60;6.90;;;29.80;98.70;;;;;;5071069;28;20057;-74
2022/08/25 10:34:44;;;;;;;15.05;6.95;;;29.80;98.50;;;;;;5071405;28;20562;-74
2022/08/25 10:37:36;;;;;;;11.77;6.90;;;29.70;98.90;;;;;;5104867;28;20076;-74
2022/08/25 10:40:12;;;;;;;13.85;7.40;;;29.70;98.90;;;;;;5088537;28;20056;-74
2022/08/25 10:42:55;;;;;;;15.45;6.50;;;29.60;99.10;;;;;;5104520;28;20754;-73
2022/08/25 10:45:43;;;;;;;10.75;6.50;;;29.50;99.00;;;;;;5087790;28;20072;-74
2022/08/25 10:48:35;;;;;;;10.35;6.22;;;29.40;98.90;;;;;;5071058;28;20056;-74
2022/08/25 10:51:30;;;;;;;13.52;7.78;;;29.20;99.00;;;;;;5104876;28;20402;-74
2022/08/25 10:54:24;;;;;;;11.68;6.57;;;29.10;99.10;;;;;;5072167;28;20052;-74
2022/08/25 10:57:20;;;;;;;12.57;7.00;;;29.10;99.30;;;;;;5104088;28;20135;-74
2022/08/25 11:00:00;;;;;;;14.93;8.02;;;29.00;99.60;;;;;;5083087;28;20051;-74
2022/08/25 11:02:49;;;;;;;12.05;7.20;;;29.00;99.00;;;;;;5067385;28;20044;-73
2022/08/25 11:05:28;;;;;;;17.88;7.75;;;29.00;99.50;;;;;;5067626;28;20130;-74
2022/08/25 11:08:10;;;;;;;15.93;7.82;;;28.90;99.30;;;;;;5084318;28;20503;-74
2022/08/25 11:10:38;;;;;;;11.50;6.78;;;28.90;99.00;;;;;;5034290;28;20041;-74
2022/08/25 11:13:21;;;;;;;15.32;7.32;;;28.90;98.90;;;;;;5083468;28;20037;-74
2022/08/25 11:15:59;;;;;;;11.25;7.50;;;29.10;99.10;;;;;;5033721;28;20067;-74
2022/08/25 11:18:53;;;;;;;13.48;6.88;;;29.20;99.80;;;;;;5081487;28;20080;-74
2022/08/25 11:21:33;;;;;;;13.73;6.63;;;29.30;99.90;;;;;;5050166;28;20140;-75
2022/08/25 11:24:26;;;;;;;11.38;6.63;;;29.30;99.90;;;;;;5096538;28;20155;-73
2022/08/25 11:26:56;;;;;;;12.00;6.72;;;29.30;99.80;;;;;;5067047;28;20495;-74
2022/08/25 11:29:30;;;;;;;11.20;7.05;;;29.20;99.70;;;;;;5043510;28;20763;-74
2022/08/25 11:31:59;;;;;;;19.63;8.45;;;29.20;99.40;;;;;;5065018;28;20442;-73
2022/08/25 11:34:31;;;;;;;9.50;5.72;;;29.00;99.90;;;;;;5073813;28;20045;-74
2022/08/25 11:37:19;;;;;;;12.15;7.00;;;28.90;99.90;;;;;;5082858;28;20055;-74
2022/08/25 11:40:13;;;;;;;12.05;7.13;;;28.70;99.90;;;;;;5066455;28;20041;-74
2022/08/25 11:42:50;;;;;;;12.65;7.20;;;28.70;99.90;;;;;;5060722;28;20686;-74
2022/08/25 11:45:41;;;;;;;17.92;8.13;;;28.60;99.50;;;;;;5102382;28;20068;-74
2022/08/25 11:48:47;;;;;;;11.75;7.35;;;28.70;99.20;;;;;;5053804;28;20037;-73
2022/08/25 11:51:39;;;;;;;16.00;9.20;;;28.70;98.90;;;;;;5051208;28;20065;-74
2022/08/25 11:54:27;;;;;;;13.43;8.05;;;28.80;99.10;;;;;;5083177;28;20126;-74
2022/08/25 11:57:05;;;;;;;17.60;8.82;;;28.80;99.30;;;;;;5055839;28;20052;-74
2022/08/25 11:59:51;;;;;;;12.82;7.25;;;28.90;99.40;;;;;;5069779;28;20057;-74
2022/08/25 12:02:46;;;;;;;12.95;7.90;;;28.90;98.80;;;;;;5086326;28;20094;-74
2022/08/25 12:05:20;;;;;;;16.20;7.88;;;28.90;97.80;;;;;;5053018;28;20457;-73
2022/08/25 12:10:51;;;;;;;15.10;8.00;;;28.90;98.70;;;;;;5070507;28;20083;-74
2022/08/25 12:13:48;;;;;;;13.75;7.47;;;29.00;99.30;;;;;;5086084;28;20040;-74
2022/08/25 12:16:34;;;;;;;11.95;7.32;;;29.10;98.70;;;;;;5069440;28;20131;-74
2022/08/25 12:19:24;;;;;;;13.50;7.90;;;29.30;98.60;;;;;;5070634;28;20051;-74
2022/08/25 12:22:13;;;;;;;13.93;7.53;;;29.40;98.60;;;;;;5070909;28;20131;-74
2022/08/25 12:24:41;;;;;;;12.80;9.98;;;29.50;98.60;;;;;;5075505;28;20131;-74
2022/08/25 12:27:46;;;;;;;11.52;7.32;;;29.60;98.20;;;;;;5102506;28;20048;-74
2022/08/25 12:30:47;;;;;;;17.92;7.20;;;29.60;98.40;;;;;;5070290;28;20063;-74
2022/08/25 12:33:50;;;;;;;12.10;7.40;;;29.60;98.10;;;;;;5086052;28;20231;-74
2022/08/25 12:36:30;;;;;;;14.80;7.75;;;29.50;98.20;;;;;;5069283;28;20045;-74
2022/08/25 12:39:14;;;;;;;10.32;7.82;;;29.50;98.20;;;;;;5052029;28;20055;-74
2022/08/25 12:42:03;;;;;;;14.55;7.93;;;29.50;98.00;;;;;;5069201;28;20465;-74
2022/08/25 12:44:39;;;;;;;12.40;6.65;;;29.40;97.70;;;;;;5072809;28;20044;-74
2022/08/25 12:47:25;;;;;;;12.68;6.95;;;29.30;97.20;;;;;;5052466;28;20558;-74
2022/08/25 12:50:32;;;;;;;11.00;7.28;;;29.30;97.30;;;;;;5069302;28;20051;-73
2022/08/25 12:53:18;;;;;;;11.90;7.07;;;29.20;97.30;;;;;;5069867;28;20065;-74
2022/08/25 12:56:04;;;;;;;10.18;7.35;;;29.10;97.30;;;;;;5086924;28;20048;-74
2022/08/25 12:58:49;;;;;;;12.77;5.88;;;29.10;97.60;;;;;;5086660;28;20395;-74
2022/08/25 13:01:50;;;;;;;12.50;7.45;;;29.00;97.60;;;;;;5086544;28;20120;-74
2022/08/25 13:04:30;;;;;;;14.80;7.68;;;29.00;97.40;;;;;;5054243;28;20095;-73
2022/08/25 13:07:14;;;;;;;16.88;8.60;;;29.10;97.50;;;;;;5086651;28;20055;-74
2022/08/25 13:10:06;;;;;;;11.55;7.07;;;29.10;97.40;;;;;;5052733;28;20523;-73
2022/08/25 13:13:08;;;;;;;13.82;8.05;;;29.10;97.00;;;;;;5085781;28;20504;-74
2022/08/25 13:15:41;;;;;;;14.95;7.97;;;29.00;97.10;;;;;;5047573;28;20115;-74
2022/08/25 13:18:13;;;;;;;10.07;7.10;;;29.10;97.20;;;;;;5069146;28;20037;-74
2022/08/25 13:20:41;;;;;;;13.40;7.28;;;29.00;97.10;;;;;;5053733;28;20127;-74
2022/08/25 13:23:10;;;;;;;11.15;6.32;;;29.10;97.10;;;;;;5053661;28;20048;-74
2022/08/25 13:25:51;;;;;;;11.68;5.90;;;29.10;97.20;;;;;;5051509;28;20053;-73
2022/08/25 13:28:34;;;;;;;10.52;6.82;;;29.20;97.00;;;;;;5085409;28;20056;-74
2022/08/25 13:31:04;;;;;;;14.20;8.40;;;29.20;96.50;;;;;;5035194;28;20053;-74